Time,TemperatureF,DewpointF,PressureIn,WindDirection,WindDirectionDegrees,WindSpeedMPH,WindSpeedGustMPH,Humidity,HourlyPrecipIn,Conditions,Clouds,dailyrainin,SoftwareType,DateUTC
2013-05-15 00:03:00,62.0,52.0,29.88,NNW,344,0.0,0.0,70,0.00,,,0.00,,2013-05-14 22:03:00,
2013-05-15 00:13:00,62.0,52.0,29.88,NNW,344,0.0,0.0,70,0.00,,,0.00,,2013-05-14 22:13:00,
2013-05-15 00:24:00,62.0,53.0,29.88,NNW,344,0.0,0.0,73,0.00,,,0.00,,2013-05-14 22:24:00,
2013-05-15 00:34:00,62.0,53.0,29.88,NNW,344,2.0,3.0,73,0.00,,,0.00,,2013-05-14 22:34:00,
2013-05-15 00:45:00,62.0,53.0,29.88,NNW,344,2.0,3.0,73,0.00,,,0.00,,2013-05-14 22:45:00,
2013-05-15 00:54:00,62.0,53.0,29.88,NNW,344,2.0,3.0,73,0.00,,,0.00,,2013-05-14 22:54:00,
2013-05-15 01:03:00,62.0,54.0,29.86,NNW,344,0.0,0.0,75,0.00,,,0.00,,2013-05-14 23:03:00,
2013-05-15 01:12:00,62.0,54.0,29.86,NNW,344,0.0,0.0,75,0.00,,,0.00,,2013-05-14 23:12:00,
2013-05-15 01:21:00,62.0,54.0,29.86,NNW,344,0.0,0.0,76,0.00,,,0.00,,2013-05-14 23:21:00,
2013-05-15 01:31:00,62.0,54.0,29.86,NNW,344,0.0,0.0,76,0.00,,,0.00,,2013-05-14 23:31:00,
2013-05-15 01:44:00,62.0,54.0,29.86,NNW,344,0.0,0.0,76,0.00,,,0.00,,2013-05-14 23:44:00,
2013-05-15 01:52:00,62.0,55.0,29.86,NNW,344,0.0,0.0,77,0.00,,,0.00,,2013-05-14 23:52:00,
2013-05-15 02:01:00,61.0,54.0,29.85,NNW,344,2.0,2.0,79,0.00,,,0.00,,2013-05-15 00:01:00,
2013-05-15 02:11:00,61.0,54.0,29.85,NNW,344,2.0,2.0,79,0.00,,,0.00,,2013-05-15 00:11:00,
2013-05-15 02:21:00,61.0,54.0,29.85,NNW,344,2.0,2.0,79,0.00,,,0.00,,2013-05-15 00:21:00,
2013-05-15 02:32:00,62.0,55.0,29.85,NNW,344,1.0,2.0,78,0.00,,,0.00,,2013-05-15 00:32:00,
2013-05-15 02:41:00,62.0,55.0,29.85,NNW,344,1.0,2.0,78,0.00,,,0.00,,2013-05-15 00:41:00,
2013-05-15 02:52:00,62.0,55.0,29.85,NNW,344,1.0,2.0,78,0.00,,,0.00,,2013-05-15 00:52:00,
2013-05-15 03:01:00,62.0,55.0,29.85,NNW,344,1.0,2.0,78,0.00,,,0.00,,2013-05-15 01:01:00,
2013-05-15 03:11:00,62.0,55.0,29.85,NNW,344,1.0,2.0,78,0.00,,,0.00,,2013-05-15 01:11:00,
2013-05-15 03:21:00,62.0,55.0,29.84,NNW,344,0.0,2.0,79,0.00,,,0.00,,2013-05-15 01:21:00,
2013-05-15 03:31:00,62.0,56.0,29.83,NNW,344,0.0,3.0,81,0.00,,,0.00,,2013-05-15 01:31:00,
2013-05-15 03:42:00,62.0,56.0,29.83,NNW,344,0.0,3.0,81,0.00,,,0.00,,2013-05-15 01:42:00,
2013-05-15 03:51:00,62.0,56.0,29.83,NNW,344,0.0,3.0,81,0.00,,,0.00,,2013-05-15 01:51:00,
2013-05-15 04:01:00,62.0,56.0,29.83,NNW,344,2.0,3.0,82,0.00,,,0.00,,2013-05-15 02:01:00,
2013-05-15 04:11:00,62.0,56.0,29.83,NNW,344,2.0,3.0,82,0.00,,,0.00,,2013-05-15 02:11:00,
2013-05-15 04:21:00,62.0,57.0,29.82,NNW,344,1.0,1.0,83,0.00,,,0.00,,2013-05-15 02:21:00,
2013-05-15 04:31:00,62.0,57.0,29.82,NNW,344,1.0,1.0,83,0.00,,,0.00,,2013-05-15 02:31:00,
2013-05-15 04:41:00,62.0,57.0,29.82,NNW,344,1.0,1.0,83,0.00,,,0.00,,2013-05-15 02:41:00,
2013-05-15 04:51:00,62.0,57.0,29.82,NNW,344,1.0,1.0,83,0.00,,,0.00,,2013-05-15 02:51:00,
2013-05-15 05:01:00,62.0,57.0,29.81,NE,44,0.0,2.0,84,0.00,,,0.00,,2013-05-15 03:01:00,
2013-05-15 05:12:00,62.0,57.0,29.81,NE,44,0.0,2.0,84,0.00,,,0.00,,2013-05-15 03:12:00,
2013-05-15 05:21:00,62.0,57.0,29.81,NE,44,0.0,2.0,84,0.00,,,0.00,,2013-05-15 03:21:00,
2013-05-15 05:33:00,62.0,57.0,29.80,East,92,2.0,4.0,85,0.00,,,0.00,,2013-05-15 03:33:00,
2013-05-15 05:44:00,62.0,57.0,29.80,East,92,2.0,4.0,85,0.00,,,0.00,,2013-05-15 03:44:00,
2013-05-15 05:54:00,62.0,57.0,29.80,East,92,2.0,4.0,85,0.00,,,0.00,,2013-05-15 03:54:00,
2013-05-15 06:03:00,62.0,57.0,29.80,East,95,2.0,3.0,85,0.00,,,0.00,,2013-05-15 04:03:00,
2013-05-15 06:12:00,62.0,57.0,29.80,East,95,2.0,3.0,85,0.00,,,0.00,,2013-05-15 04:12:00,
2013-05-15 06:23:00,62.0,57.0,29.80,East,95,0.0,2.0,85,0.00,,,0.00,,2013-05-15 04:23:00,
2013-05-15 06:32:00,61.0,56.0,29.80,East,95,0.0,0.0,85,0.00,,,0.00,,2013-05-15 04:32:00,
2013-05-15 06:42:00,61.0,56.0,29.80,East,95,0.0,0.0,85,0.00,,,0.00,,2013-05-15 04:42:00,
2013-05-15 06:52:00,61.0,56.0,29.81,East,94,2.0,4.0,84,0.00,,,0.00,,2013-05-15 04:52:00,
2013-05-15 07:02:00,61.0,56.0,29.82,East,94,1.0,2.0,84,0.00,,,0.00,,2013-05-15 05:02:00,
2013-05-15 07:11:00,61.0,56.0,29.82,East,94,1.0,2.0,84,0.00,,,0.00,,2013-05-15 05:11:00,
2013-05-15 07:22:00,61.0,56.0,29.82,East,94,1.0,2.0,84,0.00,,,0.00,,2013-05-15 05:22:00,
2013-05-15 07:32:00,64.0,57.0,29.81,ESE,119,2.0,5.0,79,0.00,,,0.00,,2013-05-15 05:32:00,
2013-05-15 07:42:00,64.0,57.0,29.81,ESE,119,2.0,5.0,79,0.00,,,0.00,,2013-05-15 05:42:00,
2013-05-15 07:52:00,64.0,57.0,29.81,SE,126,3.0,5.0,79,0.00,,,0.00,,2013-05-15 05:52:00,
2013-05-15 08:02:00,65.0,58.0,29.81,SE,138,4.0,6.0,77,0.00,,,0.00,,2013-05-15 06:02:00,
2013-05-15 08:11:00,65.0,58.0,29.81,SE,138,4.0,6.0,77,0.00,,,0.00,,2013-05-15 06:11:00,
2013-05-15 08:21:00,65.0,58.0,29.81,SE,144,2.0,4.0,77,0.00,,,0.00,,2013-05-15 06:21:00,
2013-05-15 08:31:00,65.0,56.0,29.82,South,169,4.0,6.0,74,0.00,,,0.00,,2013-05-15 06:31:00,
2013-05-15 08:41:00,65.0,56.0,29.82,South,169,4.0,6.0,74,0.00,,,0.00,,2013-05-15 06:41:00,
2013-05-15 08:51:00,65.0,56.0,29.82,South,169,4.0,6.0,74,0.00,,,0.00,,2013-05-15 06:51:00,
2013-05-15 09:01:00,66.0,57.0,29.81,SSE,168,3.0,6.0,73,0.00,,,0.00,,2013-05-15 07:01:00,
2013-05-15 09:11:00,66.0,57.0,29.81,SSE,168,3.0,6.0,73,0.00,,,0.00,,2013-05-15 07:11:00,
2013-05-15 09:21:00,66.0,57.0,29.81,SSE,168,3.0,6.0,73,0.00,,,0.00,,2013-05-15 07:21:00,
2013-05-15 09:31:00,66.0,56.0,29.81,ESE,108,7.0,8.0,69,0.00,,,0.00,,2013-05-15 07:31:00,
2013-05-15 09:41:00,66.0,56.0,29.81,ESE,108,7.0,8.0,69,0.00,,,0.00,,2013-05-15 07:41:00,
2013-05-15 09:52:00,66.0,56.0,29.81,ESE,108,7.0,8.0,69,0.00,,,0.00,,2013-05-15 07:52:00,
2013-05-15 10:02:00,66.0,56.0,29.81,ESE,108,7.0,8.0,69,0.00,,,0.00,,2013-05-15 08:02:00,
2013-05-15 10:12:00,66.0,56.0,29.81,ESE,108,7.0,8.0,69,0.00,,,0.00,,2013-05-15 08:12:00,
2013-05-15 10:32:00,68.0,54.0,29.79,SSE,152,10.0,10.0,61,0.00,,,0.00,,2013-05-15 08:32:00,
2013-05-15 10:42:00,68.0,52.0,29.79,SE,132,8.0,11.0,57,0.00,,,0.00,,2013-05-15 08:42:00,
2013-05-15 10:53:00,68.0,52.0,29.79,SE,132,8.0,11.0,57,0.00,,,0.00,,2013-05-15 08:53:00,
2013-05-15 11:01:00,68.0,52.0,29.79,SE,132,8.0,11.0,57,0.00,,,0.00,,2013-05-15 09:01:00,
2013-05-15 11:11:00,68.0,52.0,29.79,SE,132,8.0,11.0,57,0.00,,,0.00,,2013-05-15 09:11:00,
2013-05-15 11:21:00,68.0,53.0,29.81,SSE,159,7.0,8.0,58,0.00,,,0.00,,2013-05-15 09:21:00,
2013-05-15 11:32:00,68.0,53.0,29.81,SSE,159,7.0,8.0,58,0.00,,,0.00,,2013-05-15 09:32:00,
2013-05-15 11:42:00,68.0,53.0,29.81,SSE,159,7.0,8.0,58,0.00,,,0.00,,2013-05-15 09:42:00,
2013-05-15 11:53:00,68.0,53.0,29.81,SSE,159,7.0,8.0,58,0.00,,,0.00,,2013-05-15 09:53:00,
2013-05-15 12:02:00,67.0,55.0,29.80,South,186,9.0,9.0,65,0.00,,,0.00,,2013-05-15 10:02:00,
2013-05-15 12:12:00,67.0,55.0,29.80,South,186,9.0,9.0,65,0.00,,,0.00,,2013-05-15 10:12:00,
2013-05-15 12:22:00,67.0,55.0,29.80,South,186,9.0,9.0,65,0.00,,,0.00,,2013-05-15 10:22:00,
2013-05-15 12:32:00,67.0,55.0,29.80,South,186,9.0,9.0,65,0.00,,,0.00,,2013-05-15 10:32:00,
2013-05-15 12:42:00,67.0,55.0,29.80,South,186,9.0,9.0,65,0.00,,,0.00,,2013-05-15 10:42:00,
2013-05-15 13:08:00,68.0,52.0,29.80,South,190,4.0,9.0,57,0.00,,,0.00,,2013-05-15 11:08:00,
2013-05-15 13:16:00,68.0,52.0,29.80,South,190,4.0,9.0,57,0.00,,,0.00,,2013-05-15 11:16:00,
2013-05-15 13:25:00,68.0,52.0,29.80,South,190,4.0,9.0,57,0.00,,,0.00,,2013-05-15 11:25:00,
2013-05-15 13:33:00,68.0,52.0,29.80,South,190,4.0,9.0,57,0.00,,,0.00,,2013-05-15 11:33:00,
2013-05-15 13:42:00,68.0,52.0,29.80,South,190,4.0,9.0,57,0.00,,,0.00,,2013-05-15 11:42:00,
2013-05-15 14:06:00,67.0,55.0,29.79,South,180,6.0,11.0,66,0.00,,,0.00,,2013-05-15 12:06:00,
2013-05-15 14:13:00,67.0,56.0,29.79,SSW,199,7.0,10.0,68,0.00,,,0.00,,2013-05-15 12:13:00,
2013-05-15 14:24:00,67.0,56.0,29.79,SSW,199,7.0,10.0,68,0.00,,,0.00,,2013-05-15 12:24:00,
2013-05-15 14:34:00,67.0,57.0,29.79,SSW,205,6.0,12.0,70,0.00,,,0.00,,2013-05-15 12:34:00,
2013-05-15 14:42:00,67.0,57.0,29.79,SSW,205,6.0,12.0,70,0.00,,,0.00,,2013-05-15 12:42:00,
2013-05-15 15:03:00,67.0,58.0,29.79,SSW,206,11.0,11.0,73,0.00,,,0.00,,2013-05-15 13:03:00,
2013-05-15 15:11:00,67.0,58.0,29.79,SSW,206,11.0,11.0,73,0.00,,,0.00,,2013-05-15 13:11:00,
2013-05-15 15:22:00,67.0,58.0,29.79,SSW,206,11.0,11.0,73,0.00,,,0.00,,2013-05-15 13:22:00,
2013-05-15 15:42:00,67.0,58.0,29.79,SSW,206,11.0,11.0,73,0.00,,,0.00,,2013-05-15 13:42:00,
2013-05-15 16:03:00,66.0,58.0,29.78,SSW,194,7.0,11.0,75,0.00,,,0.00,,2013-05-15 14:03:00,
2013-05-15 16:12:00,67.0,59.0,29.77,South,169,9.0,9.0,76,0.00,,,0.00,,2013-05-15 14:12:00,
2013-05-15 16:22:00,67.0,59.0,29.77,South,169,9.0,9.0,76,0.00,,,0.00,,2013-05-15 14:22:00,
2013-05-15 16:34:00,67.0,59.0,29.77,SSW,205,3.0,9.0,76,0.00,,,0.00,,2013-05-15 14:34:00,
2013-05-15 16:42:00,67.0,59.0,29.77,SSW,205,3.0,9.0,76,0.00,,,0.00,,2013-05-15 14:42:00,
2013-05-15 16:52:00,66.0,59.0,29.76,SSE,160,4.0,10.0,77,0.00,,,0.00,,2013-05-15 14:52:00,
2013-05-15 17:12:00,66.0,59.0,29.76,SSE,167,7.0,10.0,77,0.00,,,0.00,,2013-05-15 15:12:00,
2013-05-15 17:35:00,67.0,60.0,29.75,SSW,192,6.0,8.0,77,0.00,,,0.00,,2013-05-15 15:35:00,
2013-05-15 17:48:00,67.0,60.0,29.75,SSW,192,6.0,8.0,77,0.00,,,0.00,,2013-05-15 15:48:00,
2013-05-15 17:58:00,67.0,60.0,29.76,SSW,197,6.0,7.0,77,0.00,,,0.00,,2013-05-15 15:58:00,
2013-05-15 18:04:00,66.0,59.0,29.76,SW,219,3.0,6.0,79,0.00,,,0.00,,2013-05-15 16:04:00,
2013-05-15 18:14:00,66.0,59.0,29.76,SW,219,3.0,6.0,79,0.00,,,0.00,,2013-05-15 16:14:00,
2013-05-15 18:23:00,66.0,59.0,29.76,SW,219,3.0,6.0,79,0.00,,,0.00,,2013-05-15 16:23:00,
2013-05-15 18:34:00,66.0,59.0,29.76,SW,219,3.0,6.0,79,0.00,,,0.00,,2013-05-15 16:34:00,
2013-05-15 18:42:00,66.0,59.0,29.76,SW,219,3.0,6.0,79,0.00,,,0.00,,2013-05-15 16:42:00,
2013-05-15 19:08:00,66.0,60.0,29.75,South,175,4.0,5.0,80,0.00,,,0.00,,2013-05-15 17:08:00,
2013-05-15 19:15:00,66.0,60.0,29.75,South,175,4.0,5.0,80,0.00,,,0.00,,2013-05-15 17:15:00,
2013-05-15 19:25:00,66.0,60.0,29.75,South,173,0.0,4.0,81,0.00,,,0.00,,2013-05-15 17:25:00,
2013-05-15 19:32:00,66.0,60.0,29.75,SSE,168,0.0,2.0,80,0.00,,,0.00,,2013-05-15 17:32:00,
2013-05-15 19:52:00,66.0,60.0,29.75,SSE,168,0.0,2.0,80,0.00,,,0.00,,2013-05-15 17:52:00,
2013-05-15 20:03:00,66.0,59.0,29.75,SE,136,1.0,5.0,79,0.00,,,0.00,,2013-05-15 18:03:00,
2013-05-15 20:11:00,66.0,59.0,29.75,SE,136,1.0,5.0,79,0.00,,,0.00,,2013-05-15 18:11:00,
2013-05-15 20:25:00,66.0,59.0,29.75,SSE,149,3.0,5.0,78,0.00,,,0.00,,2013-05-15 18:25:00,
2013-05-15 20:34:00,66.0,59.0,29.73,SSE,149,0.0,4.0,78,0.00,,,0.00,,2013-05-15 18:34:00,
2013-05-15 20:42:00,66.0,59.0,29.73,SSE,149,0.0,4.0,78,0.00,,,0.00,,2013-05-15 18:42:00,
2013-05-15 20:53:00,66.0,59.0,29.73,SSE,149,0.0,4.0,78,0.00,,,0.00,,2013-05-15 18:53:00,
2013-05-15 21:04:00,66.0,59.0,29.73,SSE,148,2.0,3.0,77,0.00,,,0.00,,2013-05-15 19:04:00,
2013-05-15 21:25:00,66.0,59.0,29.73,SSE,148,2.0,3.0,77,0.00,,,0.00,,2013-05-15 19:25:00,
2013-05-15 21:34:00,66.0,59.0,29.73,SSE,149,0.0,3.0,78,0.00,,,0.00,,2013-05-15 19:34:00,
2013-05-15 21:42:00,66.0,59.0,29.73,SSE,149,0.0,3.0,78,0.00,,,0.00,,2013-05-15 19:42:00,
2013-05-15 21:56:00,66.0,58.0,29.73,SE,138,3.0,4.0,76,0.00,,,0.00,,2013-05-15 19:56:00,
2013-05-15 22:02:00,66.0,58.0,29.73,SE,138,3.0,4.0,76,0.00,,,0.00,,2013-05-15 20:02:00,
2013-05-15 22:13:00,66.0,58.0,29.73,SE,138,3.0,4.0,76,0.00,,,0.00,,2013-05-15 20:13:00,
2013-05-15 22:22:00,65.0,56.0,29.72,ENE,67,2.0,7.0,74,0.00,,,0.00,,2013-05-15 20:22:00,
2013-05-15 22:34:00,65.0,56.0,29.72,ENE,67,2.0,7.0,74,0.00,,,0.00,,2013-05-15 20:34:00,
2013-05-15 22:44:00,65.0,56.0,29.72,ENE,67,2.0,7.0,74,0.00,,,0.00,,2013-05-15 20:44:00,
2013-05-15 22:52:00,65.0,56.0,29.72,ENE,67,2.0,7.0,74,0.00,,,0.00,,2013-05-15 20:52:00,
2013-05-15 23:06:00,66.0,53.0,29.70,East,82,2.0,4.0,63,0.00,,,0.00,,2013-05-15 21:06:00,
2013-05-15 23:17:00,66.0,53.0,29.70,East,82,2.0,4.0,63,0.00,,,0.00,,2013-05-15 21:17:00,
2013-05-15 23:26:00,67.0,53.0,29.69,East,81,2.0,5.0,61,0.00,,,0.00,,2013-05-15 21:26:00,
2013-05-15 23:53:00,67.0,53.0,29.69,East,97,5.0,7.0,60,0.00,,,0.00,,2013-05-15 21:53:00,